sensor_id;sensor_type;location;lat;lon;timestamp;P1;durP1;ratioP1;P2;durP2;ratioP2
69822;SDS011;57119;52.516;13.508;2023-09-07T00:00:35;8.57;;;5.67;;
69822;SDS011;57119;52.516;13.508;2023-09-07T00:03:00;9.20;;;5.63;;
69822;SDS011;57119;52.516;13.508;2023-09-07T00:05:26;8.90;;;5.80;;
69822;SDS011;57119;52.516;13.508;2023-09-07T00:07:51;9.83;;;5.73;;
69822;SDS011;57119;52.516;13.508;2023-09-07T00:10:17;10.40;;;5.43;;
69822;SDS011;57119;52.516;13.508;2023-09-07T00:12:42;8.93;;;5.30;;
69822;SDS011;57119;52.516;13.508;2023-09-07T00:15:08;9.52;;;5.45;;
69822;SDS011;57119;52.516;13.508;2023-09-07T00:17:35;10.57;;;5.80;;
69822;SDS011;57119;52.516;13.508;2023-09-07T00:20:02;8.80;;;5.50;;
69822;SDS011;57119;52.516;13.508;2023-09-07T00:22:39;9.87;;;5.20;;
69822;SDS011;57119;52.516;13.508;2023-09-07T00:25:04;9.73;;;5.60;;
69822;SDS011;57119;52.516;13.508;2023-09-07T00:27:32;9.68;;;5.78;;
69822;SDS011;57119;52.516;13.508;2023-09-07T00:29:59;11.30;;;5.78;;
69822;SDS011;57119;52.516;13.508;2023-09-07T00:32:24;10.27;;;6.10;;
69822;SDS011;57119;52.516;13.508;2023-09-07T00:34:50;10.40;;;6.40;;
69822;SDS011;57119;52.516;13.508;2023-09-07T00:37:15;9.32;;;6.05;;
69822;SDS011;57119;52.516;13.508;2023-09-07T00:39:40;10.30;;;5.43;;
69822;SDS011;57119;52.516;13.508;2023-09-07T00:42:06;11.90;;;5.80;;
69822;SDS011;57119;52.516;13.508;2023-09-07T00:44:31;9.30;;;5.83;;
69822;SDS011;57119;52.516;13.508;2023-09-07T00:46:57;9.60;;;5.50;;
69822;SDS011;57119;52.516;13.508;2023-09-07T00:49:23;10.82;;;5.63;;
69822;SDS011;57119;52.516;13.508;2023-09-07T00:51:49;10.85;;;5.75;;
69822;SDS011;57119;52.516;13.508;2023-09-07T00:54:15;9.75;;;6.13;;
69822;SDS011;57119;52.516;13.508;2023-09-07T00:56:41;10.67;;;6.17;;
69822;SDS011;57119;52.516;13.508;2023-09-07T00:59:07;9.02;;;5.85;;
69822;SDS011;57119;52.516;13.508;2023-09-07T01:01:33;10.67;;;5.70;;
69822;SDS011;57119;52.516;13.508;2023-09-07T01:04:00;9.82;;;6.05;;
69822;SDS011;57119;52.516;13.508;2023-09-07T01:06:30;12.25;;;6.20;;
69822;SDS011;57119;52.516;13.508;2023-09-07T01:09:02;11.93;;;6.30;;
69822;SDS011;57119;52.516;13.508;2023-09-07T01:11:36;10.68;;;6.38;;
69822;SDS011;57119;52.516;13.508;2023-09-07T01:14:03;11.00;;;5.67;;
69822;SDS011;57119;52.516;13.508;2023-09-07T01:16:29;11.70;;;5.78;;
69822;SDS011;57119;52.516;13.508;2023-09-07T01:18:58;11.35;;;5.97;;
69822;SDS011;57119;52.516;13.508;2023-09-07T01:21:25;9.68;;;6.10;;
69822;SDS011;57119;52.516;13.508;2023-09-07T01:23:52;11.98;;;6.35;;
69822;SDS011;57119;52.516;13.508;2023-09-07T01:26:19;10.37;;;6.13;;
69822;SDS011;57119;52.516;13.508;2023-09-07T01:28:44;11.95;;;6.20;;
69822;SDS011;57119;52.516;13.508;2023-09-07T01:31:10;9.23;;;5.63;;
69822;SDS011;57119;52.516;13.508;2023-09-07T01:33:35;11.80;;;7.00;;
69822;SDS011;57119;52.516;13.508;2023-09-07T01:36:01;11.80;;;6.38;;
69822;SDS011;57119;52.516;13.508;2023-09-07T01:38:26;9.83;;;6.27;;
69822;SDS011;57119;52.516;13.508;2023-09-07T01:40:52;11.80;;;6.80;;
69822;SDS011;57119;52.516;13.508;2023-09-07T01:43:17;11.20;;;6.33;;
69822;SDS011;57119;52.516;13.508;2023-09-07T01:45:42;10.83;;;6.37;;
69822;SDS011;57119;52.516;13.508;2023-09-07T01:48:11;10.60;;;6.27;;
69822;SDS011;57119;52.516;13.508;2023-09-07T01:50:39;10.98;;;6.35;;
69822;SDS011;57119;52.516;13.508;2023-09-07T01:53:04;10.87;;;6.37;;
69822;SDS011;57119;52.516;13.508;2023-09-07T01:55:30;8.63;;;5.63;;
69822;SDS011;57119;52.516;13.508;2023-09-07T01:57:59;10.27;;;6.80;;
69822;SDS011;57119;52.516;13.508;2023-09-07T02:00:24;11.10;;;6.45;;
69822;SDS011;57119;52.516;13.508;2023-09-07T02:02:50;10.83;;;6.73;;
69822;SDS011;57119;52.516;13.508;2023-09-07T02:05:15;12.33;;;6.50;;
69822;SDS011;57119;52.516;13.508;2023-09-07T02:07:41;9.77;;;6.30;;
69822;SDS011;57119;52.516;13.508;2023-09-07T02:10:07;11.32;;;6.57;;
69822;SDS011;57119;52.516;13.508;2023-09-07T02:12:33;11.00;;;6.70;;
69822;SDS011;57119;52.516;13.508;2023-09-07T02:15:00;11.60;;;6.70;;
69822;SDS011;57119;52.516;13.508;2023-09-07T02:17:27;12.38;;;6.80;;
69822;SDS011;57119;52.516;13.508;2023-09-07T02:19:52;10.00;;;6.63;;
69822;SDS011;57119;52.516;13.508;2023-09-07T02:22:17;10.40;;;6.80;;
69822;SDS011;57119;52.516;13.508;2023-09-07T02:24:43;11.38;;;6.50;;
69822;SDS011;57119;52.516;13.508;2023-09-07T02:27:08;11.70;;;7.17;;
69822;SDS011;57119;52.516;13.508;2023-09-07T02:29:33;10.93;;;6.03;;
69822;SDS011;57119;52.516;13.508;2023-09-07T02:35:20;10.27;;;6.22;;
69822;SDS011;57119;52.516;13.508;2023-09-07T02:37:46;11.43;;;6.37;;
69822;SDS011;57119;52.516;13.508;2023-09-07T02:40:11;10.57;;;6.37;;
69822;SDS011;57119;52.516;13.508;2023-09-07T02:42:36;11.77;;;6.47;;
69822;SDS011;57119;52.516;13.508;2023-09-07T02:45:02;12.60;;;6.43;;
69822;SDS011;57119;52.516;13.508;2023-09-07T02:47:28;10.63;;;6.50;;
69822;SDS011;57119;52.516;13.508;2023-09-07T02:49:53;9.83;;;6.67;;
69822;SDS011;57119;52.516;13.508;2023-09-07T02:52:19;10.50;;;6.70;;
69822;SDS011;57119;52.516;13.508;2023-09-07T02:54:44;13.00;;;6.43;;
69822;SDS011;57119;52.516;13.508;2023-09-07T02:57:09;11.37;;;6.73;;
69822;SDS011;57119;52.516;13.508;2023-09-07T02:59:37;10.18;;;6.32;;
69822;SDS011;57119;52.516;13.508;2023-09-07T03:02:03;10.80;;;7.40;;
69822;SDS011;57119;52.516;13.508;2023-09-07T03:04:28;11.77;;;7.23;;
69822;SDS011;57119;52.516;13.508;2023-09-07T03:06:54;14.18;;;7.30;;
69822;SDS011;57119;52.516;13.508;2023-09-07T03:09:19;10.90;;;7.20;;
69822;SDS011;57119;52.516;13.508;2023-09-07T03:11:44;11.13;;;7.07;;
69822;SDS011;57119;52.516;13.508;2023-09-07T03:14:10;10.83;;;7.07;;
69822;SDS011;57119;52.516;13.508;2023-09-07T03:16:35;11.83;;;7.70;;
69822;SDS011;57119;52.516;13.508;2023-09-07T03:19:01;11.10;;;6.87;;
69822;SDS011;57119;52.516;13.508;2023-09-07T03:21:26;11.98;;;7.05;;
69822;SDS011;57119;52.516;13.508;2023-09-07T03:23:54;11.50;;;6.33;;
69822;SDS011;57119;52.516;13.508;2023-09-07T03:26:23;17.05;;;8.30;;
69822;SDS011;57119;52.516;13.508;2023-09-07T03:28:48;13.93;;;7.73;;
69822;SDS011;57119;52.516;13.508;2023-09-07T03:31:13;11.93;;;7.43;;
69822;SDS011;57119;52.516;13.508;2023-09-07T03:33:39;12.23;;;7.90;;
69822;SDS011;57119;52.516;13.508;2023-09-07T03:36:04;11.50;;;7.30;;
69822;SDS011;57119;52.516;13.508;2023-09-07T03:38:29;11.93;;;7.60;;
69822;SDS011;57119;52.516;13.508;2023-09-07T03:40:55;12.40;;;7.03;;
69822;SDS011;57119;52.516;13.508;2023-09-07T03:43:20;14.07;;;7.17;;
69822;SDS011;57119;52.516;13.508;2023-09-07T03:45:46;12.23;;;7.97;;
69822;SDS011;57119;52.516;13.508;2023-09-07T03:48:11;15.07;;;7.07;;
69822;SDS011;57119;52.516;13.508;2023-09-07T03:50:37;12.13;;;7.47;;
69822;SDS011;57119;52.516;13.508;2023-09-07T03:53:02;15.57;;;8.00;;
69822;SDS011;57119;52.516;13.508;2023-09-07T03:55:28;12.57;;;8.07;;
69822;SDS011;57119;52.516;13.508;2023-09-07T03:57:53;12.03;;;7.77;;
69822;SDS011;57119;52.516;13.508;2023-09-07T04:00:19;12.37;;;8.30;;
69822;SDS011;57119;52.516;13.508;2023-09-07T04:02:44;11.98;;;7.43;;
69822;SDS011;57119;52.516;13.508;2023-09-07T04:05:10;12.53;;;7.60;;
69822;SDS011;57119;52.516;13.508;2023-09-07T04:07:36;12.60;;;7.63;;
69822;SDS011;57119;52.516;13.508;2023-09-07T04:10:02;13.57;;;8.00;;
69822;SDS011;57119;52.516;13.508;2023-09-07T04:12:27;14.00;;;8.30;;
69822;SDS011;57119;52.516;13.508;2023-09-07T04:14:53;12.32;;;7.28;;
69822;SDS011;57119;52.516;13.508;2023-09-07T04:17:18;14.47;;;7.60;;
69822;SDS011;57119;52.516;13.508;2023-09-07T04:19:44;13.70;;;8.30;;
69822;SDS011;57119;52.516;13.508;2023-09-07T04:22:10;13.93;;;8.87;;
69822;SDS011;57119;52.516;13.508;2023-09-07T04:24:36;14.25;;;8.48;;
69822;SDS011;57119;52.516;13.508;2023-09-07T04:27:01;15.27;;;8.50;;
69822;SDS011;57119;52.516;13.508;2023-09-07T04:29:27;14.23;;;8.77;;
69822;SDS011;57119;52.516;13.508;2023-09-07T04:31:53;14.10;;;8.43;;
69822;SDS011;57119;52.516;13.508;2023-09-07T04:34:18;16.42;;;9.07;;
69822;SDS011;57119;52.516;13.508;2023-09-07T04:36:45;15.73;;;9.57;;
69822;SDS011;57119;52.516;13.508;2023-09-07T04:39:10;16.83;;;10.37;;
69822;SDS011;57119;52.516;13.508;2023-09-07T04:41:36;13.30;;;8.63;;
69822;SDS011;57119;52.516;13.508;2023-09-07T04:44:01;15.13;;;8.80;;
69822;SDS011;57119;52.516;13.508;2023-09-07T04:46:26;13.87;;;8.33;;
69822;SDS011;57119;52.516;13.508;2023-09-07T04:48:52;12.20;;;7.80;;
69822;SDS011;57119;52.516;13.508;2023-09-07T04:51:17;14.83;;;8.30;;
69822;SDS011;57119;52.516;13.508;2023-09-07T04:53:43;13.43;;;8.40;;
69822;SDS011;57119;52.516;13.508;2023-09-07T04:56:08;13.63;;;8.07;;
69822;SDS011;57119;52.516;13.508;2023-09-07T04:58:34;11.82;;;7.72;;
69822;SDS011;57119;52.516;13.508;2023-09-07T05:01:03;11.33;;;7.60;;
69822;SDS011;57119;52.516;13.508;2023-09-07T05:03:30;12.88;;;8.00;;
69822;SDS011;57119;52.516;13.508;2023-09-07T05:05:55;13.93;;;7.95;;
69822;SDS011;57119;52.516;13.508;2023-09-07T05:08:21;14.13;;;8.10;;
69822;SDS011;57119;52.516;13.508;2023-09-07T05:10:47;14.38;;;8.38;;
69822;SDS011;57119;52.516;13.508;2023-09-07T05:13:13;13.63;;;8.50;;
69822;SDS011;57119;52.516;13.508;2023-09-07T05:15:46;15.93;;;8.13;;
69822;SDS011;57119;52.516;13.508;2023-09-07T05:18:13;11.95;;;7.60;;
69822;SDS011;57119;52.516;13.508;2023-09-07T05:20:38;12.73;;;7.80;;
69822;SDS011;57119;52.516;13.508;2023-09-07T05:23:04;12.07;;;7.73;;
69822;SDS011;57119;52.516;13.508;2023-09-07T05:25:29;13.00;;;7.37;;
69822;SDS011;57119;52.516;13.508;2023-09-07T05:27:54;14.23;;;7.30;;
69822;SDS011;57119;52.516;13.508;2023-09-07T05:30:20;12.57;;;7.43;;
69822;SDS011;57119;52.516;13.508;2023-09-07T05:32:45;11.70;;;7.40;;
69822;SDS011;57119;52.516;13.508;2023-09-07T05:35:11;11.83;;;7.83;;
69822;SDS011;57119;52.516;13.508;2023-09-07T05:37:37;14.18;;;7.70;;
69822;SDS011;57119;52.516;13.508;2023-09-07T05:40:02;12.23;;;7.37;;
69822;SDS011;57119;52.516;13.508;2023-09-07T05:42:29;15.55;;;6.95;;
69822;SDS011;57119;52.516;13.508;2023-09-07T05:44:54;15.37;;;7.27;;
69822;SDS011;57119;52.516;13.508;2023-09-07T05:47:19;11.27;;;7.50;;
69822;SDS011;57119;52.516;13.508;2023-09-07T05:49:45;16.10;;;8.07;;
69822;SDS011;57119;52.516;13.508;2023-09-07T05:52:10;13.23;;;7.85;;
69822;SDS011;57119;52.516;13.508;2023-09-07T05:54:35;14.17;;;7.23;;
69822;SDS011;57119;52.516;13.508;2023-09-07T05:57:01;16.17;;;8.37;;
69822;SDS011;57119;52.516;13.508;2023-09-07T05:59:26;16.90;;;6.97;;
69822;SDS011;57119;52.516;13.508;2023-09-07T06:01:51;13.67;;;7.23;;
69822;SDS011;57119;52.516;13.508;2023-09-07T06:04:17;17.27;;;7.23;;
69822;SDS011;57119;52.516;13.508;2023-09-07T06:06:42;14.00;;;7.28;;
69822;SDS011;57119;52.516;13.508;2023-09-07T06:09:07;13.97;;;6.93;;
69822;SDS011;57119;52.516;13.508;2023-09-07T06:11:33;12.57;;;7.00;;
69822;SDS011;57119;52.516;13.508;2023-09-07T06:13:59;12.13;;;6.85;;
69822;SDS011;57119;52.516;13.508;2023-09-07T06:16:25;12.87;;;6.77;;
69822;SDS011;57119;52.516;13.508;2023-09-07T06:18:50;12.27;;;6.53;;
69822;SDS011;57119;52.516;13.508;2023-09-07T06:21:16;12.38;;;6.30;;
69822;SDS011;57119;52.516;13.508;2023-09-07T06:23:41;12.53;;;5.93;;
69822;SDS011;57119;52.516;13.508;2023-09-07T06:26:07;11.70;;;6.45;;
69822;SDS011;57119;52.516;13.508;2023-09-07T06:28:32;13.53;;;5.80;;
69822;SDS011;57119;52.516;13.508;2023-09-07T06:30:58;11.90;;;6.23;;
69822;SDS011;57119;52.516;13.508;2023-09-07T06:33:24;10.38;;;6.32;;
69822;SDS011;57119;52.516;13.508;2023-09-07T06:35:49;11.67;;;6.60;;
69822;SDS011;57119;52.516;13.508;2023-09-07T06:38:14;14.03;;;6.37;;
69822;SDS011;57119;52.516;13.508;2023-09-07T06:40:40;12.10;;;6.43;;
69822;SDS011;57119;52.516;13.508;2023-09-07T06:43:05;10.53;;;6.30;;
69822;SDS011;57119;52.516;13.508;2023-09-07T06:45:34;13.07;;;6.85;;
69822;SDS011;57119;52.516;13.508;2023-09-07T06:48:01;12.73;;;6.32;;
69822;SDS011;57119;52.516;13.508;2023-09-07T06:50:27;11.90;;;6.83;;
69822;SDS011;57119;52.516;13.508;2023-09-07T06:52:52;11.57;;;6.25;;
69822;SDS011;57119;52.516;13.508;2023-09-07T06:55:18;10.30;;;5.90;;
69822;SDS011;57119;52.516;13.508;2023-09-07T06:57:43;10.47;;;5.83;;
69822;SDS011;57119;52.516;13.508;2023-09-07T07:00:09;11.30;;;5.93;;
69822;SDS011;57119;52.516;13.508;2023-09-07T07:02:36;10.65;;;6.22;;
69822;SDS011;57119;52.516;13.508;2023-09-07T07:05:02;10.53;;;5.93;;
69822;SDS011;57119;52.516;13.508;2023-09-07T07:07:28;10.30;;;5.78;;
69822;SDS011;57119;52.516;13.508;2023-09-07T07:09:54;10.53;;;6.20;;
69822;SDS011;57119;52.516;13.508;2023-09-07T07:12:19;10.13;;;6.00;;
69822;SDS011;57119;52.516;13.508;2023-09-07T07:14:45;11.70;;;5.33;;
69822;SDS011;57119;52.516;13.508;2023-09-07T07:17:11;10.02;;;5.53;;
69822;SDS011;57119;52.516;13.508;2023-09-07T07:19:36;9.70;;;5.60;;
69822;SDS011;57119;52.516;13.508;2023-09-07T07:22:02;10.83;;;5.60;;
69822;SDS011;57119;52.516;13.508;2023-09-07T07:24:28;12.50;;;6.32;;
69822;SDS011;57119;52.516;13.508;2023-09-07T07:26:53;9.60;;;5.40;;
69822;SDS011;57119;52.516;13.508;2023-09-07T07:29:19;13.32;;;5.32;;
69822;SDS011;57119;52.516;13.508;2023-09-07T07:31:44;8.50;;;5.20;;
69822;SDS011;57119;52.516;13.508;2023-09-07T07:34:09;9.37;;;5.80;;
69822;SDS011;57119;52.516;13.508;2023-09-07T07:36:35;16.92;;;6.43;;
69822;SDS011;57119;52.516;13.508;2023-09-07T07:39:01;11.40;;;5.83;;
69822;SDS011;57119;52.516;13.508;2023-09-07T07:41:28;10.43;;;6.05;;
69822;SDS011;57119;52.516;13.508;2023-09-07T07:43:53;9.27;;;6.07;;
69822;SDS011;57119;52.516;13.508;2023-09-07T07:46:19;9.97;;;5.60;;
69822;SDS011;57119;52.516;13.508;2023-09-07T07:48:44;12.15;;;6.07;;
69822;SDS011;57119;52.516;13.508;2023-09-07T07:51:10;9.33;;;6.43;;
69822;SDS011;57119;52.516;13.508;2023-09-07T07:53:35;11.17;;;6.03;;
69822;SDS011;57119;52.516;13.508;2023-09-07T07:56:01;11.40;;;6.80;;
69822;SDS011;57119;52.516;13.508;2023-09-07T07:58:28;9.15;;;5.65;;
69822;SDS011;57119;52.516;13.508;2023-09-07T08:00:53;10.47;;;6.67;;
69822;SDS011;57119;52.516;13.508;2023-09-07T08:03:27;10.40;;;6.47;;
69822;SDS011;57119;52.516;13.508;2023-09-07T08:06:02;13.23;;;6.22;;
69822;SDS011;57119;52.516;13.508;2023-09-07T08:08:32;9.25;;;6.10;;
69822;SDS011;57119;52.516;13.508;2023-09-07T08:10:57;10.77;;;6.33;;
69822;SDS011;57119;52.516;13.508;2023-09-07T08:13:25;9.25;;;5.85;;
69822;SDS011;57119;52.516;13.508;2023-09-07T08:15:50;11.27;;;5.60;;
69822;SDS011;57119;52.516;13.508;2023-09-07T08:22:04;12.13;;;6.95;;
69822;SDS011;57119;52.516;13.508;2023-09-07T08:24:30;12.07;;;6.60;;
69822;SDS011;57119;52.516;13.508;2023-09-07T08:26:59;9.67;;;6.30;;
69822;SDS011;57119;52.516;13.508;2023-09-07T08:29:25;11.10;;;5.93;;
69822;SDS011;57119;52.516;13.508;2023-09-07T08:31:52;10.55;;;6.45;;
69822;SDS011;57119;52.516;13.508;2023-09-07T08:34:18;10.60;;;6.10;;
69822;SDS011;57119;52.516;13.508;2023-09-07T08:36:45;9.07;;;6.15;;
69822;SDS011;57119;52.516;13.508;2023-09-07T08:39:12;9.63;;;5.53;;
69822;SDS011;57119;52.516;13.508;2023-09-07T08:41:38;10.07;;;6.32;;
69822;SDS011;57119;52.516;13.508;2023-09-07T08:44:11;8.77;;;5.82;;
69822;SDS011;57119;52.516;13.508;2023-09-07T08:46:37;8.53;;;5.53;;
69822;SDS011;57119;52.516;13.508;2023-09-07T08:49:03;12.32;;;6.43;;
69822;SDS011;57119;52.516;13.508;2023-09-07T08:51:30;13.30;;;6.75;;
69822;SDS011;57119;52.516;13.508;2023-09-07T08:54:07;9.30;;;6.47;;
69822;SDS011;57119;52.516;13.508;2023-09-07T09:03:20;11.48;;;5.93;;
69822;SDS011;57119;52.516;13.508;2023-09-07T09:05:45;12.20;;;6.17;;
69822;SDS011;57119;52.516;13.508;2023-09-07T09:08:14;9.37;;;6.37;;
69822;SDS011;57119;52.516;13.508;2023-09-07T09:10:39;9.93;;;6.60;;
69822;SDS011;57119;52.516;13.508;2023-09-07T09:13:05;15.83;;;6.23;;
69822;SDS011;57119;52.516;13.508;2023-09-07T09:15:31;12.10;;;6.80;;
69822;SDS011;57119;52.516;13.508;2023-09-07T09:17:56;9.03;;;6.43;;
69822;SDS011;57119;52.516;13.508;2023-09-07T09:20:25;8.70;;;5.70;;
69822;SDS011;57119;52.516;13.508;2023-09-07T09:22:54;8.38;;;6.35;;
69822;SDS011;57119;52.516;13.508;2023-09-07T09:25:20;8.85;;;6.95;;
69822;SDS011;57119;52.516;13.508;2023-09-07T09:27:46;11.23;;;6.20;;
69822;SDS011;57119;52.516;13.508;2023-09-07T09:30:13;10.03;;;6.00;;
69822;SDS011;57119;52.516;13.508;2023-09-07T09:32:41;8.47;;;6.07;;
69822;SDS011;57119;52.516;13.508;2023-09-07T09:35:07;11.05;;;6.18;;
69822;SDS011;57119;52.516;13.508;2023-09-07T09:37:34;11.07;;;6.95;;
69822;SDS011;57119;52.516;13.508;2023-09-07T09:40:08;20.38;;;7.05;;
69822;SDS011;57119;52.516;13.508;2023-09-07T09:42:35;14.32;;;7.05;;
69822;SDS011;57119;52.516;13.508;2023-09-07T09:45:01;9.57;;;6.73;;
69822;SDS011;57119;52.516;13.508;2023-09-07T09:47:28;9.82;;;7.20;;
69822;SDS011;57119;52.516;13.508;2023-09-07T09:49:56;11.23;;;6.88;;
69822;SDS011;57119;52.516;13.508;2023-09-07T09:52:23;9.68;;;6.65;;
69822;SDS011;57119;52.516;13.508;2023-09-07T09:54:50;10.80;;;6.80;;
69822;SDS011;57119;52.516;13.508;2023-09-07T09:57:17;11.60;;;6.67;;
69822;SDS011;57119;52.516;13.508;2023-09-07T09:59:42;10.00;;;6.43;;
69822;SDS011;57119;52.516;13.508;2023-09-07T10:02:09;9.90;;;6.13;;
69822;SDS011;57119;52.516;13.508;2023-09-07T10:04:36;9.97;;;6.27;;
69822;SDS011;57119;52.516;13.508;2023-09-07T10:07:02;9.93;;;6.80;;
69822;SDS011;57119;52.516;13.508;2023-09-07T10:09:32;9.18;;;6.65;;
69822;SDS011;57119;52.516;13.508;2023-09-07T10:11:58;10.15;;;6.20;;
69822;SDS011;57119;52.516;13.508;2023-09-07T10:14:24;8.55;;;6.00;;
69822;SDS011;57119;52.516;13.508;2023-09-07T10:16:51;8.10;;;6.63;;
69822;SDS011;57119;52.516;13.508;2023-09-07T10:19:24;10.87;;;6.33;;
69822;SDS011;57119;52.516;13.508;2023-09-07T10:21:52;9.10;;;6.20;;
69822;SDS011;57119;52.516;13.508;2023-09-07T10:24:29;9.95;;;6.10;;
69822;SDS011;57119;52.516;13.508;2023-09-07T10:26:59;9.55;;;6.13;;
69822;SDS011;57119;52.516;13.508;2023-09-07T10:29:26;8.35;;;5.63;;
69822;SDS011;57119;52.516;13.508;2023-09-07T10:31:54;8.43;;;6.82;;
69822;SDS011;57119;52.516;13.508;2023-09-07T10:34:20;8.30;;;6.47;;
69822;SDS011;57119;52.516;13.508;2023-09-07T10:36:47;8.10;;;6.25;;
69822;SDS011;57119;52.516;13.508;2023-09-07T10:39:13;8.90;;;5.43;;
69822;SDS011;57119;52.516;13.508;2023-09-07T10:41:42;8.13;;;6.28;;
69822;SDS011;57119;52.516;13.508;2023-09-07T10:44:08;8.47;;;6.47;;
69822;SDS011;57119;52.516;13.508;2023-09-07T10:46:35;8.67;;;6.57;;
69822;SDS011;57119;52.516;13.508;2023-09-07T10:49:03;7.22;;;5.53;;
69822;SDS011;57119;52.516;13.508;2023-09-07T10:51:33;9.43;;;6.07;;
69822;SDS011;57119;52.516;13.508;2023-09-07T10:53:58;7.63;;;6.40;;
69822;SDS011;57119;52.516;13.508;2023-09-07T10:56:24;9.32;;;6.03;;
69822;SDS011;57119;52.516;13.508;2023-09-07T10:58:53;8.13;;;6.93;;
69822;SDS011;57119;52.516;13.508;2023-09-07T11:01:20;7.75;;;6.25;;
69822;SDS011;57119;52.516;13.508;2023-09-07T11:03:45;12.43;;;6.47;;
69822;SDS011;57119;52.516;13.508;2023-09-07T11:06:17;10.25;;;6.93;;
69822;SDS011;57119;52.516;13.508;2023-09-07T11:08:47;11.53;;;6.27;;
69822;SDS011;57119;52.516;13.508;2023-09-07T11:11:13;8.98;;;5.40;;
69822;SDS011;57119;52.516;13.508;2023-09-07T11:13:41;7.72;;;6.28;;
69822;SDS011;57119;52.516;13.508;2023-09-07T11:16:08;7.33;;;5.53;;
69822;SDS011;57119;52.516;13.508;2023-09-07T11:18:34;10.13;;;6.47;;
69822;SDS011;57119;52.516;13.508;2023-09-07T11:21:03;7.43;;;5.97;;
69822;SDS011;57119;52.516;13.508;2023-09-07T11:23:29;10.85;;;5.53;;
69822;SDS011;57119;52.516;13.508;2023-09-07T11:26:03;12.10;;;6.03;;
69822;SDS011;57119;52.516;13.508;2023-09-07T11:28:29;7.43;;;5.63;;
69822;SDS011;57119;52.516;13.508;2023-09-07T11:30:55;7.43;;;5.37;;
69822;SDS011;57119;52.516;13.508;2023-09-07T11:33:21;7.77;;;4.73;;
69822;SDS011;57119;52.516;13.508;2023-09-07T11:35:47;7.47;;;5.72;;
69822;SDS011;57119;52.516;13.508;2023-09-07T11:38:14;8.47;;;5.53;;
69822;SDS011;57119;52.516;13.508;2023-09-07T11:40:41;8.98;;;5.68;;
69822;SDS011;57119;52.516;13.508;2023-09-07T11:43:13;9.05;;;6.57;;
69822;SDS011;57119;52.516;13.508;2023-09-07T11:45:40;9.13;;;5.72;;
69822;SDS011;57119;52.516;13.508;2023-09-07T11:48:06;11.50;;;5.97;;
69822;SDS011;57119;52.516;13.508;2023-09-07T11:50:34;11.80;;;5.53;;
69822;SDS011;57119;52.516;13.508;2023-09-07T11:53:00;9.90;;;6.63;;
69822;SDS011;57119;52.516;13.508;2023-09-07T11:55:25;8.43;;;6.00;;
69822;SDS011;57119;52.516;13.508;2023-09-07T11:57:51;9.10;;;6.53;;
69822;SDS011;57119;52.516;13.508;2023-09-07T12:00:17;8.73;;;6.53;;
69822;SDS011;57119;52.516;13.508;2023-09-07T12:02:42;7.97;;;7.07;;
69822;SDS011;57119;52.516;13.508;2023-09-07T12:05:08;8.00;;;6.13;;
69822;SDS011;57119;52.516;13.508;2023-09-07T12:07:34;11.30;;;6.70;;
69822;SDS011;57119;52.516;13.508;2023-09-07T12:10:01;9.85;;;6.80;;
69822;SDS011;57119;52.516;13.508;2023-09-07T12:12:27;7.40;;;5.82;;
69822;SDS011;57119;52.516;13.508;2023-09-07T12:14:53;7.30;;;6.33;;
69822;SDS011;57119;52.516;13.508;2023-09-07T12:17:18;7.65;;;6.28;;
69822;SDS011;57119;52.516;13.508;2023-09-07T12:19:44;7.40;;;6.10;;
69822;SDS011;57119;52.516;13.508;2023-09-07T12:22:11;8.57;;;6.27;;
69822;SDS011;57119;52.516;13.508;2023-09-07T12:24:37;7.05;;;6.00;;
69822;SDS011;57119;52.516;13.508;2023-09-07T12:27:02;8.48;;;6.32;;
69822;SDS011;57119;52.516;13.508;2023-09-07T12:29:28;9.37;;;7.63;;
69822;SDS011;57119;52.516;13.508;2023-09-07T12:31:53;8.82;;;7.07;;
69822;SDS011;57119;52.516;13.508;2023-09-07T12:34:19;13.20;;;7.53;;
69822;SDS011;57119;52.516;13.508;2023-09-07T12:36:44;8.50;;;6.87;;
69822;SDS011;57119;52.516;13.508;2023-09-07T12:39:10;9.87;;;7.33;;
69822;SDS011;57119;52.516;13.508;2023-09-07T12:41:37;9.43;;;6.67;;
69822;SDS011;57119;52.516;13.508;2023-09-07T12:44:03;8.18;;;7.18;;
69822;SDS011;57119;52.516;13.508;2023-09-07T12:46:30;8.82;;;6.28;;
69822;SDS011;57119;52.516;13.508;2023-09-07T12:48:56;9.10;;;7.72;;
69822;SDS011;57119;52.516;13.508;2023-09-07T12:51:21;7.90;;;7.10;;
69822;SDS011;57119;52.516;13.508;2023-09-07T12:53:46;8.23;;;7.03;;
69822;SDS011;57119;52.516;13.508;2023-09-07T12:56:12;7.90;;;6.83;;
69822;SDS011;57119;52.516;13.508;2023-09-07T12:58:38;9.40;;;7.30;;
69822;SDS011;57119;52.516;13.508;2023-09-07T13:01:04;10.07;;;6.73;;
69822;SDS011;57119;52.516;13.508;2023-09-07T13:03:29;9.63;;;6.80;;
69822;SDS011;57119;52.516;13.508;2023-09-07T13:05:55;8.37;;;6.30;;
69822;SDS011;57119;52.516;13.508;2023-09-07T13:08:20;9.63;;;6.95;;
69822;SDS011;57119;52.516;13.508;2023-09-07T13:10:46;9.50;;;8.40;;
69822;SDS011;57119;52.516;13.508;2023-09-07T13:13:11;8.70;;;6.07;;
69822;SDS011;57119;52.516;13.508;2023-09-07T13:15:37;8.63;;;6.63;;
69822;SDS011;57119;52.516;13.508;2023-09-07T13:18:02;9.00;;;6.77;;
69822;SDS011;57119;52.516;13.508;2023-09-07T13:20:28;8.07;;;6.57;;
69822;SDS011;57119;52.516;13.508;2023-09-07T13:22:53;10.63;;;6.85;;
69822;SDS011;57119;52.516;13.508;2023-09-07T13:25:19;9.20;;;6.30;;
69822;SDS011;57119;52.516;13.508;2023-09-07T13:27:44;9.73;;;6.87;;
69822;SDS011;57119;52.516;13.508;2023-09-07T13:30:10;11.53;;;7.00;;
69822;SDS011;57119;52.516;13.508;2023-09-07T13:32:37;8.80;;;7.90;;
69822;SDS011;57119;52.516;13.508;2023-09-07T13:35:03;8.32;;;7.43;;
69822;SDS011;57119;52.516;13.508;2023-09-07T13:37:29;8.52;;;7.63;;
69822;SDS011;57119;52.516;13.508;2023-09-07T13:39:55;9.10;;;6.77;;
69822;SDS011;57119;52.516;13.508;2023-09-07T13:42:20;7.97;;;5.85;;
69822;SDS011;57119;52.516;13.508;2023-09-07T13:44:46;10.87;;;8.57;;
69822;SDS011;57119;52.516;13.508;2023-09-07T13:47:12;8.88;;;6.38;;
69822;SDS011;57119;52.516;13.508;2023-09-07T13:49:38;9.43;;;7.33;;
69822;SDS011;57119;52.516;13.508;2023-09-07T13:52:03;9.57;;;6.13;;
69822;SDS011;57119;52.516;13.508;2023-09-07T13:54:29;9.13;;;6.13;;
69822;SDS011;57119;52.516;13.508;2023-09-07T13:56:54;8.57;;;6.00;;
69822;SDS011;57119;52.516;13.508;2023-09-07T13:59:21;7.97;;;6.37;;
69822;SDS011;57119;52.516;13.508;2023-09-07T14:01:46;8.23;;;6.83;;
69822;SDS011;57119;52.516;13.508;2023-09-07T14:04:12;10.23;;;6.57;;
69822;SDS011;57119;52.516;13.508;2023-09-07T14:06:37;8.27;;;6.50;;
69822;SDS011;57119;52.516;13.508;2023-09-07T14:09:02;8.77;;;6.47;;
69822;SDS011;57119;52.516;13.508;2023-09-07T14:11:28;8.13;;;7.10;;
69822;SDS011;57119;52.516;13.508;2023-09-07T14:13:53;8.47;;;6.27;;
69822;SDS011;57119;52.516;13.508;2023-09-07T14:16:19;10.55;;;6.60;;
69822;SDS011;57119;52.516;13.508;2023-09-07T14:18:46;7.93;;;5.93;;
69822;SDS011;57119;52.516;13.508;2023-09-07T14:21:13;8.40;;;6.40;;
69822;SDS011;57119;52.516;13.508;2023-09-07T14:23:39;8.68;;;6.45;;
69822;SDS011;57119;52.516;13.508;2023-09-07T14:26:05;9.60;;;6.73;;
69822;SDS011;57119;52.516;13.508;2023-09-07T14:28:31;10.45;;;6.97;;
69822;SDS011;57119;52.516;13.508;2023-09-07T14:30:56;8.07;;;5.57;;
69822;SDS011;57119;52.516;13.508;2023-09-07T14:33:24;9.33;;;6.43;;